createdAt,value
2022-09-03T00:00:56.361Z,0.95
2022-09-03T00:05:08.983Z,1.33
2022-09-03T00:09:19.251Z,1.27
2022-09-03T00:13:27.762Z,1.05
2022-09-03T00:17:37.422Z,1.08
2022-09-03T00:21:47.383Z,1.40
2022-09-03T00:25:58.180Z,0.93
2022-09-03T00:30:07.217Z,0.82
2022-09-03T00:34:31.503Z,1.23
2022-09-03T00:38:35.252Z,0.88
2022-09-03T00:42:48.871Z,0.98
2022-09-03T00:46:57.841Z,1.25
2022-09-03T00:51:17.583Z,0.80
2022-09-03T00:55:34.004Z,1.00
2022-09-03T00:59:43.165Z,1.10
2022-09-03T01:03:57.528Z,0.80
2022-09-03T01:08:12.445Z,1.38
2022-09-03T01:12:26.719Z,1.25
2022-09-03T01:16:37.967Z,0.90
2022-09-03T01:20:51.579Z,1.10
2022-09-03T01:25:13.446Z,0.95
2022-09-03T01:29:26.964Z,1.25
2022-09-03T01:33:36.328Z,1.25
2022-09-03T01:37:48.890Z,0.80
2022-09-03T01:42:20.955Z,1.58
2022-09-03T01:46:28.572Z,1.25
2022-09-03T01:50:44.731Z,1.23
2022-09-03T01:55:01.383Z,1.25
2022-09-03T01:59:09.915Z,0.63
2022-09-03T02:03:16.106Z,1.40
2022-09-03T02:07:19.612Z,1.10
2022-09-03T02:11:22.711Z,1.20
2022-09-03T02:15:28.640Z,1.08
2022-09-03T02:19:35.140Z,1.42
2022-09-03T02:23:41.481Z,1.30
2022-09-03T02:27:45.657Z,0.70
2022-09-03T02:31:49.608Z,2.15
2022-09-03T02:35:55.386Z,1.15
2022-09-03T02:39:59.220Z,1.38
2022-09-03T02:44:08.148Z,1.48
2022-09-03T02:48:13.414Z,1.17
2022-09-03T02:52:18.528Z,1.35
2022-09-03T02:56:25.098Z,1.20
2022-09-03T03:00:29.254Z,1.33
2022-09-03T03:04:33.803Z,1.10
2022-09-03T03:08:38.692Z,1.42
2022-09-03T03:12:42.576Z,1.67
2022-09-03T03:16:46.330Z,1.02
2022-09-03T03:20:49.697Z,1.48
2022-09-03T03:24:56.174Z,1.73
2022-09-03T03:29:02.976Z,1.25
2022-09-03T03:33:06.866Z,1.58
2022-09-03T03:37:10.160Z,1.95
2022-09-03T03:41:18.300Z,1.15
2022-09-03T03:45:21.633Z,1.58
2022-09-03T03:49:24.781Z,1.13
2022-09-03T03:53:27.796Z,1.50
2022-09-03T03:57:33.705Z,1.42
2022-09-03T04:01:36.727Z,1.40
2022-09-03T04:05:46.215Z,1.75
2022-09-03T04:09:52.310Z,1.38
2022-09-03T04:13:57.478Z,1.40
2022-09-03T04:18:00.772Z,1.60
2022-09-03T04:22:04.076Z,1.80
2022-09-03T04:26:09.117Z,1.45
2022-09-03T04:30:14.398Z,1.08
2022-09-03T04:34:18.359Z,1.65
2022-09-03T04:38:21.995Z,1.48
2022-09-03T04:42:25.183Z,1.70
2022-09-03T04:46:34.278Z,1.38
2022-09-03T04:50:37.553Z,1.48
2022-09-03T04:54:41.234Z,1.45
2022-09-03T04:58:44.894Z,1.52
2022-09-03T05:02:52.583Z,2.15
2022-09-03T05:06:55.700Z,2.10
2022-09-03T05:11:02.535Z,1.50
2022-09-03T05:15:07.154Z,1.40
2022-09-03T05:19:14.876Z,2.35
2022-09-03T05:23:20.411Z,1.88
2022-09-03T05:27:24.332Z,2.17
2022-09-03T05:31:32.391Z,1.67
2022-09-03T05:35:36.988Z,1.40
2022-09-03T05:39:40.829Z,1.30
2022-09-03T05:43:45.423Z,1.85
2022-09-03T05:47:48.996Z,1.90
2022-09-03T05:51:53.514Z,2.33
2022-09-03T05:55:58.369Z,1.63
2022-09-03T06:00:01.999Z,1.85
2022-09-03T06:04:07.445Z,1.50
2022-09-03T06:08:13.000Z,1.92
2022-09-03T06:12:16.596Z,1.60
2022-09-03T06:16:29.048Z,1.73
2022-09-03T06:20:37.295Z,1.60
2022-09-03T06:24:42.209Z,1.77
2022-09-03T06:28:45.627Z,1.70
2022-09-03T06:32:51.055Z,1.55
2022-09-03T06:36:54.584Z,1.45
2022-09-03T06:41:03.860Z,1.50
2022-09-03T06:45:12.100Z,1.55
2022-09-03T06:49:16.073Z,2.10
2022-09-03T06:53:19.403Z,1.15
2022-09-03T06:57:24.290Z,1.70
2022-09-03T07:01:31.670Z,1.52
2022-09-03T07:05:35.436Z,1.15
2022-09-03T07:09:39.046Z,1.83
2022-09-03T07:13:45.108Z,1.73
2022-09-03T07:17:48.635Z,1.48
2022-09-03T07:21:52.158Z,1.33
2022-09-03T07:25:57.228Z,1.17
2022-09-03T07:30:03.136Z,1.45
2022-09-03T07:34:10.330Z,1.67
2022-09-03T07:38:14.304Z,1.60
2022-09-03T07:42:17.915Z,1.25
2022-09-03T07:46:25.054Z,1.83
2022-09-03T07:50:30.771Z,1.83
2022-09-03T07:54:34.442Z,1.67
2022-09-03T07:58:39.311Z,1.30
2022-09-03T08:02:46.339Z,1.30
2022-09-03T08:06:50.182Z,1.40
2022-09-03T08:10:53.739Z,1.42
2022-09-03T08:14:58.575Z,0.85
2022-09-03T08:19:03.527Z,1.30
2022-09-03T08:23:07.067Z,1.65
2022-09-03T08:27:10.436Z,1.50
2022-09-03T08:31:16.018Z,1.17
2022-09-03T08:35:22.115Z,1.50
2022-09-03T08:45:43.701Z,1.20
2022-09-03T08:49:50.962Z,1.33
2022-09-03T08:53:58.080Z,1.38
2022-09-03T08:58:07.072Z,1.42
2022-09-03T09:02:26.008Z,1.23
2022-09-03T09:06:37.121Z,1.20
2022-09-03T09:10:48.371Z,1.48
2022-09-03T09:15:03.065Z,1.60
2022-09-03T09:19:19.743Z,1.63
2022-09-03T09:23:29.699Z,1.45
2022-09-03T09:27:35.013Z,1.30
2022-09-03T09:31:39.983Z,1.75
2022-09-03T09:35:43.903Z,1.13
2022-09-03T09:39:58.940Z,1.10
2022-09-03T09:44:05.398Z,1.55
2022-09-03T09:48:18.348Z,1.35
2022-09-03T09:52:26.309Z,1.40
2022-09-03T09:56:29.689Z,1.25
2022-09-03T10:00:37.584Z,1.85
2022-09-03T10:04:44.420Z,1.58
2022-09-03T10:08:47.820Z,1.75
2022-09-03T10:13:00.001Z,1.55
2022-09-03T10:17:11.286Z,1.20
2022-09-03T10:21:21.592Z,1.88
2022-09-03T10:25:28.687Z,1.33
2022-09-03T10:29:32.188Z,1.25
2022-09-03T10:33:44.829Z,1.40
2022-09-03T10:37:56.547Z,1.00
2022-09-03T10:42:13.922Z,1.13
2022-09-03T10:46:24.006Z,1.20
2022-09-03T10:50:33.591Z,1.30
2022-09-03T10:54:52.908Z,1.60
2022-09-03T10:59:06.923Z,1.13
2022-09-03T11:03:40.839Z,1.33
2022-09-03T11:07:50.119Z,1.40
2022-09-03T11:11:56.809Z,1.58
2022-09-03T11:16:02.532Z,1.38
2022-09-03T11:20:16.317Z,1.05
2022-09-03T11:24:24.563Z,1.23
2022-09-03T11:28:40.611Z,1.20
2022-09-03T11:32:55.396Z,1.10
2022-09-03T11:37:19.977Z,1.20
2022-09-03T11:41:28.395Z,1.35
2022-09-03T11:45:37.686Z,1.05
2022-09-03T11:49:47.601Z,0.80
2022-09-03T11:53:58.609Z,1.10
2022-09-03T11:58:21.342Z,1.45
2022-09-03T12:02:30.903Z,1.50
2022-09-03T12:06:52.386Z,1.10
2022-09-03T12:11:01.128Z,0.77
2022-09-03T12:15:16.646Z,0.93
2022-09-03T12:19:27.630Z,1.00
2022-09-03T12:23:34.160Z,1.00
2022-09-03T12:44:20.593Z,1.23
2022-09-03T12:49:37.337Z,0.90
2022-09-03T12:55:12.829Z,0.82
2022-09-03T13:00:07.786Z,0.60
2022-09-03T13:10:08.991Z,0.70
2022-09-03T13:15:05.927Z,0.73
2022-09-03T13:19:21.458Z,0.90
2022-09-03T13:23:40.605Z,0.98
2022-09-03T13:27:55.108Z,0.80
2022-09-03T13:32:06.379Z,1.15
2022-09-03T13:36:19.606Z,1.10
2022-09-03T13:40:27.500Z,1.20
2022-09-03T13:44:42.604Z,1.00
2022-09-03T13:49:04.792Z,0.90
2022-09-03T13:53:17.953Z,0.75
2022-09-03T13:57:29.552Z,0.55
2022-09-03T14:01:47.544Z,1.07
2022-09-03T14:06:07.114Z,1.05
2022-09-03T14:10:23.681Z,0.80
2022-09-03T14:18:45.860Z,0.80
2022-09-03T14:22:54.748Z,0.98
2022-09-03T14:27:03.262Z,0.70
2022-09-03T14:31:15.555Z,0.85
2022-09-03T14:39:36.251Z,0.88
2022-09-03T14:44:05.593Z,0.90
2022-09-03T14:48:32.066Z,1.00
2022-09-03T14:52:55.331Z,0.80
2022-09-03T14:57:14.721Z,0.80
2022-09-03T15:01:29.991Z,0.90
2022-09-03T15:05:52.235Z,0.98
2022-09-03T15:10:06.268Z,1.00
2022-09-03T15:14:15.510Z,0.65
2022-09-03T15:18:30.914Z,0.85
2022-09-03T15:22:50.036Z,0.85
2022-09-03T15:27:06.844Z,1.15
2022-09-03T15:31:20.048Z,1.17
2022-09-03T15:35:45.788Z,1.25
2022-09-03T15:40:01.301Z,1.08
2022-09-03T15:44:10.210Z,1.38
2022-09-03T15:48:27.886Z,1.10
2022-09-03T15:52:41.166Z,0.82
2022-09-03T15:56:56.537Z,0.93
2022-09-03T16:01:04.803Z,1.30
2022-09-03T16:05:16.939Z,1.02
2022-09-03T16:09:32.185Z,1.23
2022-09-03T16:13:45.818Z,0.93
2022-09-03T16:17:57.594Z,1.25
2022-09-03T16:22:05.551Z,1.20
2022-09-03T16:26:18.052Z,1.50
2022-09-03T16:34:37.163Z,1.00
2022-09-03T16:38:54.183Z,1.20
2022-09-03T16:43:29.889Z,1.30
2022-09-03T16:47:43.080Z,1.10
2022-09-03T16:51:56.499Z,1.40
2022-09-03T16:56:16.108Z,1.35
2022-09-03T17:00:22.838Z,1.20
2022-09-03T17:04:50.061Z,1.42
2022-09-03T17:09:04.290Z,1.25
2022-09-03T17:13:35.289Z,1.30
2022-09-03T17:18:10.162Z,1.10
2022-09-03T17:22:27.875Z,1.60
2022-09-03T17:26:40.475Z,1.30
2022-09-03T17:35:06.557Z,0.82
2022-09-03T17:39:51.872Z,1.23
2022-09-03T17:44:07.019Z,1.75
2022-09-03T17:52:30.983Z,1.45
2022-09-03T17:56:45.909Z,1.63
2022-09-03T18:00:58.723Z,1.88
2022-09-03T18:05:09.327Z,1.65
2022-09-03T18:09:26.553Z,1.33
2022-09-03T18:13:44.322Z,1.52
2022-09-03T18:17:55.262Z,1.88
2022-09-03T18:22:19.678Z,1.65
2022-09-03T18:26:47.834Z,1.55
2022-09-03T18:31:08.979Z,2.00
2022-09-03T18:35:30.211Z,1.77
2022-09-03T18:39:51.556Z,1.80
2022-09-03T18:44:26.097Z,1.60
2022-09-03T18:48:55.166Z,1.60
2022-09-03T18:53:21.379Z,2.40
2022-09-03T18:57:46.538Z,2.50
2022-09-03T19:02:09.486Z,2.92
2022-09-03T19:06:42.671Z,2.75
2022-09-03T19:11:10.024Z,2.10
2022-09-03T19:15:35.606Z,2.75
2022-09-03T19:20:21.848Z,2.53
2022-09-03T19:24:47.483Z,3.05
2022-09-03T19:29:15.574Z,2.40
2022-09-03T19:33:45.359Z,3.85
2022-09-03T19:38:18.160Z,3.35
2022-09-03T19:42:52.414Z,4.10
2022-09-03T19:47:17.548Z,2.50
2022-09-03T19:51:44.831Z,3.03
2022-09-03T19:56:12.007Z,2.47
2022-09-03T20:00:33.582Z,3.38
2022-09-03T20:04:58.731Z,2.58
2022-09-03T20:09:26.755Z,2.95
2022-09-03T20:13:52.128Z,2.08
2022-09-03T20:18:05.747Z,3.25
2022-09-03T20:22:17.511Z,2.58
2022-09-03T20:26:39.586Z,2.47
2022-09-03T20:30:52.036Z,2.28
2022-09-03T20:35:04.342Z,2.20
2022-09-03T20:39:30.150Z,1.50
2022-09-03T20:43:45.430Z,2.05
2022-09-03T20:48:04.023Z,2.08
2022-09-03T20:52:14.123Z,2.13
2022-09-03T20:56:27.051Z,2.63
2022-09-03T21:04:56.911Z,3.08
2022-09-03T21:09:17.864Z,2.75
2022-09-03T21:13:38.232Z,3.10
2022-09-03T21:17:54.167Z,2.85
2022-09-03T21:22:05.972Z,2.58
2022-09-03T21:26:15.989Z,2.47
2022-09-03T21:30:20.812Z,3.03
2022-09-03T21:34:31.573Z,2.53
2022-09-03T21:38:39.561Z,2.33
2022-09-03T21:42:47.593Z,3.03
2022-09-03T21:46:56.361Z,2.85
2022-09-03T21:51:02.440Z,2.45
2022-09-03T21:55:23.764Z,2.60
2022-09-03T21:59:56.717Z,2.92
2022-09-03T22:04:00.446Z,2.30
2022-09-03T22:08:18.424Z,2.95
2022-09-03T22:12:31.687Z,3.33
2022-09-03T22:16:40.887Z,2.60
2022-09-03T22:21:00.771Z,2.97
2022-09-03T22:25:10.760Z,3.33
2022-09-03T22:29:29.343Z,4.25
2022-09-03T22:33:40.201Z,3.78
2022-09-03T22:37:59.269Z,3.78
2022-09-03T22:42:30.038Z,4.00
2022-09-03T22:46:43.309Z,4.47
2022-09-03T22:50:54.813Z,4.55
2022-09-03T22:55:16.958Z,4.63
2022-09-03T22:59:25.643Z,3.70
2022-09-03T23:03:42.621Z,2.95
2022-09-03T23:07:54.295Z,3.80
2022-09-03T23:12:02.622Z,3.20
2022-09-03T23:16:12.761Z,3.53
2022-09-03T23:20:23.076Z,3.40
2022-09-03T23:24:30.634Z,3.83
2022-09-03T23:28:37.220Z,3.78
2022-09-03T23:32:40.717Z,4.75
2022-09-03T23:37:32.086Z,3.53
2022-09-03T23:41:43.325Z,3.80
2022-09-03T23:46:01.080Z,3.40
2022-09-03T23:50:13.045Z,3.35
2022-09-03T23:54:25.998Z,3.40
